Главная страница
METAR-TAF:

METAR-TAF

Аэропорты :

Берлин, Германия

Берлин-Тегель

широта: 52-34N, долгота: 013-19E, высота над уровнем моря: 37 м

Текущие метеонаблюдения

Эта сводка был подготовлена 24 минут назад, в 22:20 UTC
Ветер 5 Узел от северо-восточный, изменяющийся между северо-северо-восточный и восточный
Температура 0°C
Влажность 69%
Давление 1026 hPa
Видимость 10 км и более
Рассеянная облачность на высоте 4300 фута

METAR: EDDT 222220Z 05005KT 020V090 9999 BKN043 M00/M05 Q1026

Время: 23:44 (22:44 UTC)

Прогноз

Эта сводка был подготовлена 5 часа и 44 минут назад, в 17:00 UTC
Прогноз действительный с 22-го 18 UTC до 23-го 18 UTC
Ветер 6 Узел от восточно-северо-восточный
Видимость 10 км и более
Отдельные облака на высоте 4000 фута

TAF: EDDT 221700Z 2218/2318 07006KT 9999 SCT040

Метеонаблюдения и прогнозы для более 4000 аэропортов (сводки METAR и TAF).

Имеющиеся станции представлены на карте желтыми и красными точками.

Чтобы увидеть название станции, наведите на нее мышь.

Затем щелкните, чтобы увидеть метеонаблюдения и метеопрогнозы.

Управление картой: чтобы увеличить масштаб, щелкните зеленые кнопки с черным крестиком; чтобы уменьшить масштаб, щелкните зеленую кнопку с тире; для просмотра соседних карт щелкайте зеленые стрелки.


METAR-TAF: